sensor_id;sensor_type;location;lat;lon;timestamp;P1;durP1;ratioP1;P2;durP2;ratioP2
1719;SDS011;857;52.872;9.692;2023-09-07T10:49:20;5.47;;;4.83;;
1719;SDS011;857;52.872;9.692;2023-09-07T10:51:47;5.67;;;5.03;;
1719;SDS011;857;52.872;9.692;2023-09-07T10:54:16;5.53;;;5.00;;
1719;SDS011;857;52.872;9.692;2023-09-07T10:56:44;5.83;;;5.27;;
1719;SDS011;857;52.872;9.692;2023-09-07T10:59:12;5.33;;;4.83;;
1719;SDS011;857;52.872;9.692;2023-09-07T11:01:40;5.90;;;5.07;;
1719;SDS011;857;52.872;9.692;2023-09-07T11:04:08;7.30;;;5.10;;
1719;SDS011;857;52.872;9.692;2023-09-07T11:06:38;5.57;;;5.00;;
1719;SDS011;857;52.872;9.692;2023-09-07T11:09:08;7.63;;;5.83;;
1719;SDS011;857;52.872;9.692;2023-09-07T11:11:36;9.38;;;6.40;;
1719;SDS011;857;52.872;9.692;2023-09-07T11:14:04;11.90;;;7.17;;
1719;SDS011;857;52.872;9.692;2023-09-07T11:16:32;7.70;;;5.33;;
1719;SDS011;857;52.872;9.692;2023-09-07T11:19:03;10.90;;;5.85;;
1719;SDS011;857;52.872;9.692;2023-09-07T11:21:31;4.67;;;4.27;;
1719;SDS011;857;52.872;9.692;2023-09-07T11:24:01;4.67;;;4.10;;
1719;SDS011;857;52.872;9.692;2023-09-07T11:26:40;6.33;;;5.43;;
1719;SDS011;857;52.872;9.692;2023-09-07T11:29:08;6.90;;;4.90;;
1719;SDS011;857;52.872;9.692;2023-09-07T11:31:36;18.70;;;6.90;;
1719;SDS011;857;52.872;9.692;2023-09-07T11:34:08;11.80;;;6.27;;
1719;SDS011;857;52.872;9.692;2023-09-07T11:36:36;9.63;;;5.83;;
1719;SDS011;857;52.872;9.692;2023-09-07T11:39:06;9.07;;;6.03;;
1719;SDS011;857;52.872;9.692;2023-09-07T11:41:38;11.13;;;6.20;;
1719;SDS011;857;52.872;9.692;2023-09-07T11:44:06;9.40;;;5.87;;
1719;SDS011;857;52.872;9.692;2023-09-07T11:46:34;5.80;;;5.17;;
1719;SDS011;857;52.872;9.692;2023-09-07T11:49:01;8.53;;;5.60;;
1719;SDS011;857;52.872;9.692;2023-09-07T11:51:30;5.60;;;5.10;;
1719;SDS011;857;52.872;9.692;2023-09-07T11:53:58;5.60;;;5.10;;
1719;SDS011;857;52.872;9.692;2023-09-07T11:56:27;5.40;;;4.90;;
1719;SDS011;857;52.872;9.692;2023-09-07T11:58:54;6.60;;;4.90;;
1719;SDS011;857;52.872;9.692;2023-09-07T12:01:22;10.60;;;6.13;;
1719;SDS011;857;52.872;9.692;2023-09-07T12:03:51;5.63;;;5.13;;
1719;SDS011;857;52.872;9.692;2023-09-07T12:06:19;10.77;;;6.13;;
1719;SDS011;857;52.872;9.692;2023-09-07T12:08:57;6.50;;;5.57;;
1719;SDS011;857;52.872;9.692;2023-09-07T12:11:27;5.57;;;5.07;;
1719;SDS011;857;52.872;9.692;2023-09-07T12:13:54;6.13;;;5.53;;
1719;SDS011;857;52.872;9.692;2023-09-07T12:16:22;19.03;;;6.90;;
1719;SDS011;857;52.872;9.692;2023-09-07T12:18:50;5.93;;;5.33;;
1719;SDS011;857;52.872;9.692;2023-09-07T12:21:18;6.60;;;6.00;;
1719;SDS011;857;52.872;9.692;2023-09-07T12:23:46;6.43;;;5.70;;
1719;SDS011;857;52.872;9.692;2023-09-07T12:26:14;6.40;;;5.80;;
1719;SDS011;857;52.872;9.692;2023-09-07T12:28:43;6.97;;;5.67;;
1719;SDS011;857;52.872;9.692;2023-09-07T12:31:11;7.60;;;6.63;;
1719;SDS011;857;52.872;9.692;2023-09-07T12:33:40;6.73;;;6.13;;
1719;SDS011;857;52.872;9.692;2023-09-07T12:36:08;6.60;;;6.00;;
1719;SDS011;857;52.872;9.692;2023-09-07T12:38:37;7.87;;;6.50;;
1719;SDS011;857;52.872;9.692;2023-09-07T12:41:04;7.30;;;6.10;;
1719;SDS011;857;52.872;9.692;2023-09-07T12:43:32;6.00;;;5.40;;
1719;SDS011;857;52.872;9.692;2023-09-07T12:46:01;9.10;;;6.10;;
1719;SDS011;857;52.872;9.692;2023-09-07T12:48:29;9.33;;;6.10;;
1719;SDS011;857;52.872;9.692;2023-09-07T12:50:57;8.13;;;6.00;;
1719;SDS011;857;52.872;9.692;2023-09-07T12:53:24;9.20;;;5.97;;
1719;SDS011;857;52.872;9.692;2023-09-07T12:55:52;10.00;;;6.53;;
1719;SDS011;857;52.872;9.692;2023-09-07T12:58:20;9.03;;;6.60;;
1719;SDS011;857;52.872;9.692;2023-09-07T13:00:48;6.40;;;5.80;;
1719;SDS011;857;52.872;9.692;2023-09-07T13:03:18;6.50;;;4.90;;
1719;SDS011;857;52.872;9.692;2023-09-07T13:05:46;8.33;;;5.60;;
1719;SDS011;857;52.872;9.692;2023-09-07T13:08:15;6.73;;;6.00;;
1719;SDS011;857;52.872;9.692;2023-09-07T13:10:42;8.37;;;6.03;;
1719;SDS011;857;52.872;9.692;2023-09-07T13:13:10;5.90;;;5.40;;
1719;SDS011;857;52.872;9.692;2023-09-07T13:15:38;8.27;;;6.20;;
1719;SDS011;857;52.872;9.692;2023-09-07T13:18:06;7.30;;;5.80;;
1719;SDS011;857;52.872;9.692;2023-09-07T13:20:35;7.40;;;5.70;;
1719;SDS011;857;52.872;9.692;2023-09-07T13:23:03;8.20;;;5.87;;
1719;SDS011;857;52.872;9.692;2023-09-07T13:25:30;5.73;;;5.10;;
1719;SDS011;857;52.872;9.692;2023-09-07T13:27:58;6.60;;;5.63;;
1719;SDS011;857;52.872;9.692;2023-09-07T13:30:26;7.40;;;5.80;;
1719;SDS011;857;52.872;9.692;2023-09-07T13:32:54;7.20;;;5.70;;
1719;SDS011;857;52.872;9.692;2023-09-07T13:35:22;7.40;;;6.40;;
1719;SDS011;857;52.872;9.692;2023-09-07T13:37:51;7.93;;;6.27;;
1719;SDS011;857;52.872;9.692;2023-09-07T13:40:19;6.63;;;5.80;;
1719;SDS011;857;52.872;9.692;2023-09-07T13:42:49;7.50;;;6.70;;
1719;SDS011;857;52.872;9.692;2023-09-07T13:45:17;8.10;;;5.80;;
1719;SDS011;857;52.872;9.692;2023-09-07T13:47:45;8.43;;;5.93;;
1719;SDS011;857;52.872;9.692;2023-09-07T13:50:12;6.60;;;5.90;;
1719;SDS011;857;52.872;9.692;2023-09-07T13:52:40;6.87;;;6.17;;
1719;SDS011;857;52.872;9.692;2023-09-07T13:55:09;7.50;;;6.70;;
1719;SDS011;857;52.872;9.692;2023-09-07T13:57:37;9.00;;;6.10;;
1719;SDS011;857;52.872;9.692;2023-09-07T14:00:05;8.80;;;6.40;;
1719;SDS011;857;52.872;9.692;2023-09-07T14:02:33;7.33;;;5.70;;
1719;SDS011;857;52.872;9.692;2023-09-07T14:05:00;6.37;;;5.60;;
1719;SDS011;857;52.872;9.692;2023-09-07T14:07:28;6.87;;;6.17;;
1719;SDS011;857;52.872;9.692;2023-09-07T14:09:56;6.73;;;5.90;;
1719;SDS011;857;52.872;9.692;2023-09-07T14:12:25;6.27;;;5.50;;
1719;SDS011;857;52.872;9.692;2023-09-07T14:14:52;6.97;;;6.17;;
1719;SDS011;857;52.872;9.692;2023-09-07T14:17:20;6.50;;;5.87;;
1719;SDS011;857;52.872;9.692;2023-09-07T14:19:48;6.00;;;5.40;;
1719;SDS011;857;52.872;9.692;2023-09-07T14:22:16;6.63;;;5.70;;
1719;SDS011;857;52.872;9.692;2023-09-07T14:24:43;8.10;;;5.40;;
1719;SDS011;857;52.872;9.692;2023-09-07T14:27:11;5.60;;;5.10;;
1719;SDS011;857;52.872;9.692;2023-09-07T14:29:40;5.93;;;5.07;;
1719;SDS011;857;52.872;9.692;2023-09-07T14:32:08;8.60;;;5.60;;
1719;SDS011;857;52.872;9.692;2023-09-07T14:34:36;7.47;;;5.40;;
1719;SDS011;857;52.872;9.692;2023-09-07T14:37:04;6.23;;;5.70;;
1719;SDS011;857;52.872;9.692;2023-09-07T14:39:31;6.80;;;5.50;;
1719;SDS011;857;52.872;9.692;2023-09-07T14:42:01;9.90;;;6.00;;
1719;SDS011;857;52.872;9.692;2023-09-07T14:44:31;6.90;;;5.37;;
1719;SDS011;857;52.872;9.692;2023-09-07T14:47:00;6.80;;;5.53;;
1719;SDS011;857;52.872;9.692;2023-09-07T14:49:29;9.80;;;5.33;;
1719;SDS011;857;52.872;9.692;2023-09-07T14:51:57;6.50;;;5.90;;
1719;SDS011;857;52.872;9.692;2023-09-07T14:54:25;5.23;;;4.73;;
1719;SDS011;857;52.872;9.692;2023-09-07T14:56:53;6.87;;;4.87;;
1719;SDS011;857;52.872;9.692;2023-09-07T14:59:20;6.13;;;5.53;;
1719;SDS011;857;52.872;9.692;2023-09-07T15:01:49;7.90;;;5.10;;
1719;SDS011;857;52.872;9.692;2023-09-07T15:04:18;4.90;;;4.50;;
1719;SDS011;857;52.872;9.692;2023-09-07T15:06:45;6.10;;;5.37;;
1719;SDS011;857;52.872;9.692;2023-09-07T15:09:13;6.13;;;5.60;;
1719;SDS011;857;52.872;9.692;2023-09-07T15:11:41;5.23;;;4.73;;
1719;SDS011;857;52.872;9.692;2023-09-07T15:14:08;5.37;;;4.87;;
1719;SDS011;857;52.872;9.692;2023-09-07T15:16:36;5.90;;;5.40;;
1719;SDS011;857;52.872;9.692;2023-09-07T15:19:04;5.53;;;5.00;;
1719;SDS011;857;52.872;9.692;2023-09-07T15:21:33;6.20;;;5.60;;
1719;SDS011;857;52.872;9.692;2023-09-07T15:24:00;5.97;;;5.20;;
1719;SDS011;857;52.872;9.692;2023-09-07T15:26:28;5.50;;;4.40;;
1719;SDS011;857;52.872;9.692;2023-09-07T15:28:56;6.10;;;5.50;;
1719;SDS011;857;52.872;9.692;2023-09-07T15:31:24;5.90;;;5.37;;
1719;SDS011;857;52.872;9.692;2023-09-07T15:33:51;6.37;;;4.97;;
1719;SDS011;857;52.872;9.692;2023-09-07T15:36:19;7.50;;;5.13;;
1719;SDS011;857;52.872;9.692;2023-09-07T15:38:48;5.97;;;5.47;;
1719;SDS011;857;52.872;9.692;2023-09-07T15:41:16;5.70;;;5.20;;
1719;SDS011;857;52.872;9.692;2023-09-07T15:43:44;6.57;;;5.97;;
1719;SDS011;857;52.872;9.692;2023-09-07T15:46:12;7.70;;;6.00;;
1719;SDS011;857;52.872;9.692;2023-09-07T15:48:40;5.90;;;5.30;;
1719;SDS011;857;52.872;9.692;2023-09-07T15:51:08;5.27;;;4.80;;
1719;SDS011;857;52.872;9.692;2023-09-07T15:53:36;5.77;;;5.27;;
1719;SDS011;857;52.872;9.692;2023-09-07T15:56:05;6.13;;;5.53;;
1719;SDS011;857;52.872;9.692;2023-09-07T15:58:33;6.67;;;5.30;;
1719;SDS011;857;52.872;9.692;2023-09-07T16:01:00;6.97;;;5.80;;
1719;SDS011;857;52.872;9.692;2023-09-07T16:03:28;5.80;;;5.30;;
1719;SDS011;857;52.872;9.692;2023-09-07T16:05:56;6.80;;;6.13;;
1719;SDS011;857;52.872;9.692;2023-09-07T16:08:24;6.13;;;5.53;;
1719;SDS011;857;52.872;9.692;2023-09-07T16:10:54;6.23;;;5.67;;
1719;SDS011;857;52.872;9.692;2023-09-07T16:13:23;7.30;;;6.60;;
1719;SDS011;857;52.872;9.692;2023-09-07T16:15:51;5.70;;;5.20;;
1719;SDS011;857;52.872;9.692;2023-09-07T16:18:19;5.43;;;4.80;;
1719;SDS011;857;52.872;9.692;2023-09-07T16:20:46;6.87;;;6.27;;
1719;SDS011;857;52.872;9.692;2023-09-07T16:23:15;6.90;;;6.20;;
1719;SDS011;857;52.872;9.692;2023-09-07T16:25:43;5.93;;;5.43;;
1719;SDS011;857;52.872;9.692;2023-09-07T16:28:11;6.10;;;5.60;;
1719;SDS011;857;52.872;9.692;2023-09-07T16:30:40;7.13;;;6.53;;
1719;SDS011;857;52.872;9.692;2023-09-07T16:33:08;6.00;;;5.40;;
1719;SDS011;857;52.872;9.692;2023-09-07T16:35:36;5.53;;;5.03;;
1719;SDS011;857;52.872;9.692;2023-09-07T16:38:04;5.30;;;4.80;;
1719;SDS011;857;52.872;9.692;2023-09-07T16:40:31;7.10;;;5.70;;
1719;SDS011;857;52.872;9.692;2023-09-07T16:42:59;5.50;;;5.00;;
1719;SDS011;857;52.872;9.692;2023-09-07T16:45:27;5.20;;;4.70;;
1719;SDS011;857;52.872;9.692;2023-09-07T16:47:56;5.00;;;4.60;;
1719;SDS011;857;52.872;9.692;2023-09-07T16:50:24;5.40;;;4.90;;
1719;SDS011;857;52.872;9.692;2023-09-07T16:52:51;5.60;;;5.00;;
1719;SDS011;857;52.872;9.692;2023-09-07T16:55:19;4.90;;;4.37;;
1719;SDS011;857;52.872;9.692;2023-09-07T16:57:47;5.10;;;4.70;;
1719;SDS011;857;52.872;9.692;2023-09-07T17:00:15;5.50;;;4.90;;
1719;SDS011;857;52.872;9.692;2023-09-07T17:02:43;5.73;;;4.80;;
1719;SDS011;857;52.872;9.692;2023-09-07T17:05:12;4.97;;;4.47;;
1719;SDS011;857;52.872;9.692;2023-09-07T17:07:40;7.83;;;4.87;;
1719;SDS011;857;52.872;9.692;2023-09-07T17:10:08;6.60;;;5.17;;
1719;SDS011;857;52.872;9.692;2023-09-07T17:12:35;6.00;;;5.20;;
1719;SDS011;857;52.872;9.692;2023-09-07T17:15:04;5.70;;;5.10;;
1719;SDS011;857;52.872;9.692;2023-09-07T17:17:32;5.37;;;4.87;;
1719;SDS011;857;52.872;9.692;2023-09-07T17:19:59;5.00;;;4.60;;
1719;SDS011;857;52.872;9.692;2023-09-07T17:22:30;5.10;;;4.60;;
1719;SDS011;857;52.872;9.692;2023-09-07T17:24:57;5.13;;;4.70;;
1719;SDS011;857;52.872;9.692;2023-09-07T17:27:25;5.30;;;4.80;;
1719;SDS011;857;52.872;9.692;2023-09-07T17:29:53;5.33;;;4.63;;
1719;SDS011;857;52.872;9.692;2023-09-07T17:32:20;6.13;;;4.90;;
1719;SDS011;857;52.872;9.692;2023-09-07T17:34:48;5.10;;;4.63;;
1719;SDS011;857;52.872;9.692;2023-09-07T17:37:16;4.67;;;4.27;;
1719;SDS011;857;52.872;9.692;2023-09-07T17:39:45;4.90;;;4.40;;
1719;SDS011;857;52.872;9.692;2023-09-07T17:42:12;4.90;;;4.50;;
1719;SDS011;857;52.872;9.692;2023-09-07T17:44:40;5.00;;;4.60;;
1719;SDS011;857;52.872;9.692;2023-09-07T17:47:09;4.87;;;4.47;;
1719;SDS011;857;52.872;9.692;2023-09-07T17:49:36;4.93;;;4.53;;
1719;SDS011;857;52.872;9.692;2023-09-07T17:52:04;5.67;;;4.27;;
1719;SDS011;857;52.872;9.692;2023-09-07T17:54:32;5.20;;;4.70;;
1719;SDS011;857;52.872;9.692;2023-09-07T17:57:01;4.97;;;4.47;;
1719;SDS011;857;52.872;9.692;2023-09-07T17:59:29;4.63;;;4.23;;
1719;SDS011;857;52.872;9.692;2023-09-07T18:01:56;4.87;;;4.30;;
1719;SDS011;857;52.872;9.692;2023-09-07T18:04:24;4.97;;;4.57;;
1719;SDS011;857;52.872;9.692;2023-09-07T18:06:52;4.90;;;4.50;;
1719;SDS011;857;52.872;9.692;2023-09-07T18:09:19;5.07;;;4.60;;
1719;SDS011;857;52.872;9.692;2023-09-07T18:11:47;4.40;;;4.10;;
1719;SDS011;857;52.872;9.692;2023-09-07T18:14:16;4.70;;;4.17;;
1719;SDS011;857;52.872;9.692;2023-09-07T18:16:44;6.40;;;4.23;;
1719;SDS011;857;52.872;9.692;2023-09-07T18:19:12;5.13;;;4.63;;
1719;SDS011;857;52.872;9.692;2023-09-07T18:21:40;4.77;;;4.37;;
1719;SDS011;857;52.872;9.692;2023-09-07T18:24:07;4.67;;;4.27;;
1719;SDS011;857;52.872;9.692;2023-09-07T18:26:35;6.33;;;4.77;;
1719;SDS011;857;52.872;9.692;2023-09-07T18:29:03;4.93;;;4.47;;
1719;SDS011;857;52.872;9.692;2023-09-07T18:31:32;4.83;;;4.43;;
1719;SDS011;857;52.872;9.692;2023-09-07T18:34:00;4.80;;;4.40;;
1719;SDS011;857;52.872;9.692;2023-09-07T18:36:27;4.90;;;4.40;;
1719;SDS011;857;52.872;9.692;2023-09-07T18:38:55;4.73;;;3.87;;
1719;SDS011;857;52.872;9.692;2023-09-07T18:41:23;4.50;;;4.20;;
1719;SDS011;857;52.872;9.692;2023-09-07T18:43:50;4.83;;;4.23;;
1719;SDS011;857;52.872;9.692;2023-09-07T18:46:18;4.27;;;3.97;;
1719;SDS011;857;52.872;9.692;2023-09-07T18:48:47;4.27;;;3.83;;
1719;SDS011;857;52.872;9.692;2023-09-07T18:51:15;5.17;;;4.60;;
1719;SDS011;857;52.872;9.692;2023-09-07T18:53:43;4.57;;;4.17;;
1719;SDS011;857;52.872;9.692;2023-09-07T18:56:10;4.80;;;4.37;;
1719;SDS011;857;52.872;9.692;2023-09-07T18:58:38;7.40;;;4.47;;
1719;SDS011;857;52.872;9.692;2023-09-07T19:01:12;4.87;;;4.50;;
1719;SDS011;857;52.872;9.692;2023-09-07T19:03:43;4.20;;;3.90;;
1719;SDS011;857;52.872;9.692;2023-09-07T19:06:12;5.33;;;4.83;;
1719;SDS011;857;52.872;9.692;2023-09-07T19:08:40;5.30;;;4.80;;
1719;SDS011;857;52.872;9.692;2023-09-07T19:11:08;7.17;;;4.50;;
1719;SDS011;857;52.872;9.692;2023-09-07T19:13:36;5.00;;;4.60;;
1719;SDS011;857;52.872;9.692;2023-09-07T19:16:03;4.93;;;4.53;;
1719;SDS011;857;52.872;9.692;2023-09-07T19:18:31;5.80;;;5.20;;
1719;SDS011;857;52.872;9.692;2023-09-07T19:20:59;5.97;;;4.67;;
1719;SDS011;857;52.872;9.692;2023-09-07T19:23:28;7.20;;;4.87;;
1719;SDS011;857;52.872;9.692;2023-09-07T19:25:55;4.67;;;4.27;;
1719;SDS011;857;52.872;9.692;2023-09-07T19:28:23;9.57;;;5.40;;
1719;SDS011;857;52.872;9.692;2023-09-07T19:30:51;6.00;;;4.60;;
1719;SDS011;857;52.872;9.692;2023-09-07T19:33:18;4.40;;;3.90;;
1719;SDS011;857;52.872;9.692;2023-09-07T19:35:46;5.93;;;4.67;;
1719;SDS011;857;52.872;9.692;2023-09-07T19:38:14;5.10;;;4.50;;
1719;SDS011;857;52.872;9.692;2023-09-07T19:40:43;5.10;;;4.60;;
1719;SDS011;857;52.872;9.692;2023-09-07T19:43:11;4.57;;;4.17;;
1719;SDS011;857;52.872;9.692;2023-09-07T19:45:43;5.03;;;4.57;;
1719;SDS011;857;52.872;9.692;2023-09-07T19:48:11;5.63;;;5.13;;
1719;SDS011;857;52.872;9.692;2023-09-07T19:50:39;5.13;;;4.73;;
1719;SDS011;857;52.872;9.692;2023-09-07T19:53:06;5.07;;;4.57;;
1719;SDS011;857;52.872;9.692;2023-09-07T19:55:34;5.03;;;4.63;;
1719;SDS011;857;52.872;9.692;2023-09-07T19:58:03;6.03;;;4.93;;
1719;SDS011;857;52.872;9.692;2023-09-07T20:00:31;4.70;;;4.30;;
1719;SDS011;857;52.872;9.692;2023-09-07T20:02:58;5.10;;;3.90;;
1719;SDS011;857;52.872;9.692;2023-09-07T20:05:26;4.60;;;4.23;;
1719;SDS011;857;52.872;9.692;2023-09-07T20:07:54;5.43;;;4.57;;
1719;SDS011;857;52.872;9.692;2023-09-07T20:10:21;4.57;;;4.17;;
1719;SDS011;857;52.872;9.692;2023-09-07T20:12:49;5.67;;;4.90;;
1719;SDS011;857;52.872;9.692;2023-09-07T20:15:19;5.17;;;4.67;;
1719;SDS011;857;52.872;9.692;2023-09-07T20:17:47;5.93;;;4.40;;
1719;SDS011;857;52.872;9.692;2023-09-07T20:20:15;6.53;;;5.90;;
1719;SDS011;857;52.872;9.692;2023-09-07T20:22:42;5.50;;;5.00;;
1719;SDS011;857;52.872;9.692;2023-09-07T20:25:10;5.83;;;5.30;;
1719;SDS011;857;52.872;9.692;2023-09-07T20:27:38;5.83;;;5.23;;
1719;SDS011;857;52.872;9.692;2023-09-07T20:30:06;5.17;;;4.67;;
1719;SDS011;857;52.872;9.692;2023-09-07T20:32:35;4.70;;;4.30;;
1719;SDS011;857;52.872;9.692;2023-09-07T20:35:04;6.37;;;5.60;;
1719;SDS011;857;52.872;9.692;2023-09-07T20:37:32;5.40;;;4.90;;
1719;SDS011;857;52.872;9.692;2023-09-07T20:40:00;5.93;;;5.30;;
1719;SDS011;857;52.872;9.692;2023-09-07T20:42:28;4.93;;;4.53;;
1719;SDS011;857;52.872;9.692;2023-09-07T20:44:56;4.57;;;4.17;;
1719;SDS011;857;52.872;9.692;2023-09-07T20:47:23;5.70;;;5.20;;
1719;SDS011;857;52.872;9.692;2023-09-07T20:49:52;4.73;;;4.33;;
1719;SDS011;857;52.872;9.692;2023-09-07T20:52:21;5.13;;;4.73;;
1719;SDS011;857;52.872;9.692;2023-09-07T20:54:49;5.37;;;4.87;;
1719;SDS011;857;52.872;9.692;2023-09-07T20:57:17;4.60;;;4.20;;
1719;SDS011;857;52.872;9.692;2023-09-07T20:59:44;3.70;;;3.40;;
1719;SDS011;857;52.872;9.692;2023-09-07T21:02:12;4.63;;;4.23;;
1719;SDS011;857;52.872;9.692;2023-09-07T21:04:40;4.67;;;4.20;;
1719;SDS011;857;52.872;9.692;2023-09-07T21:07:09;4.70;;;4.00;;
1719;SDS011;857;52.872;9.692;2023-09-07T21:09:36;4.33;;;3.93;;
1719;SDS011;857;52.872;9.692;2023-09-07T21:12:04;5.50;;;5.00;;
1719;SDS011;857;52.872;9.692;2023-09-07T21:14:32;6.20;;;5.17;;
1719;SDS011;857;52.872;9.692;2023-09-07T21:17:00;4.30;;;3.90;;
1719;SDS011;857;52.872;9.692;2023-09-07T21:19:28;4.90;;;4.50;;
1719;SDS011;857;52.872;9.692;2023-09-07T21:21:56;4.30;;;3.90;;
1719;SDS011;857;52.872;9.692;2023-09-07T21:24:25;5.70;;;5.20;;
1719;SDS011;857;52.872;9.692;2023-09-07T21:26:53;4.33;;;4.03;;
1719;SDS011;857;52.872;9.692;2023-09-07T21:29:21;4.60;;;4.20;;
1719;SDS011;857;52.872;9.692;2023-09-07T21:31:49;4.37;;;3.83;;
1719;SDS011;857;52.872;9.692;2023-09-07T21:34:16;4.80;;;4.40;;
1719;SDS011;857;52.872;9.692;2023-09-07T21:36:44;4.30;;;3.90;;
1719;SDS011;857;52.872;9.692;2023-09-07T21:39:12;4.20;;;3.80;;
1719;SDS011;857;52.872;9.692;2023-09-07T21:41:45;4.60;;;4.20;;
1719;SDS011;857;52.872;9.692;2023-09-07T21:44:13;4.47;;;4.07;;
1719;SDS011;857;52.872;9.692;2023-09-07T21:46:41;5.07;;;4.60;;
1719;SDS011;857;52.872;9.692;2023-09-07T21:49:09;4.53;;;4.13;;
1719;SDS011;857;52.872;9.692;2023-09-07T21:51:37;4.73;;;4.33;;
1719;SDS011;857;52.872;9.692;2023-09-07T21:54:05;4.70;;;4.30;;
1719;SDS011;857;52.872;9.692;2023-09-07T21:56:33;4.60;;;4.20;;
1719;SDS011;857;52.872;9.692;2023-09-07T21:59:02;4.73;;;4.33;;
1719;SDS011;857;52.872;9.692;2023-09-07T22:01:30;4.70;;;4.30;;
1719;SDS011;857;52.872;9.692;2023-09-07T22:03:58;4.93;;;4.53;;
1719;SDS011;857;52.872;9.692;2023-09-07T22:06:26;5.73;;;5.20;;
1719;SDS011;857;52.872;9.692;2023-09-07T22:08:54;4.73;;;4.23;;
1719;SDS011;857;52.872;9.692;2023-09-07T22:11:21;4.67;;;4.30;;
1719;SDS011;857;52.872;9.692;2023-09-07T22:13:49;4.80;;;4.40;;
1719;SDS011;857;52.872;9.692;2023-09-07T22:16:18;4.30;;;4.00;;
1719;SDS011;857;52.872;9.692;2023-09-07T22:18:46;5.00;;;4.50;;
1719;SDS011;857;52.872;9.692;2023-09-07T22:21:14;5.37;;;4.87;;
1719;SDS011;857;52.872;9.692;2023-09-07T22:23:42;4.50;;;4.20;;
1719;SDS011;857;52.872;9.692;2023-09-07T22:26:10;5.70;;;5.20;;
1719;SDS011;857;52.872;9.692;2023-09-07T22:28:38;7.87;;;5.63;;
1719;SDS011;857;52.872;9.692;2023-09-07T22:31:06;10.20;;;5.27;;
1719;SDS011;857;52.872;9.692;2023-09-07T22:33:35;5.13;;;4.67;;
1719;SDS011;857;52.872;9.692;2023-09-07T22:36:03;6.20;;;5.70;;
1719;SDS011;857;52.872;9.692;2023-09-07T22:38:31;6.17;;;5.30;;
1719;SDS011;857;52.872;9.692;2023-09-07T22:40:58;5.80;;;5.07;;
1719;SDS011;857;52.872;9.692;2023-09-07T22:43:26;4.60;;;4.20;;
1719;SDS011;857;52.872;9.692;2023-09-07T22:45:54;5.13;;;4.70;;
1719;SDS011;857;52.872;9.692;2023-09-07T22:48:21;5.90;;;5.40;;
1719;SDS011;857;52.872;9.692;2023-09-07T22:50:50;5.50;;;5.00;;
1719;SDS011;857;52.872;9.692;2023-09-07T22:53:18;5.90;;;5.40;;
1719;SDS011;857;52.872;9.692;2023-09-07T22:55:47;4.83;;;4.43;;
1719;SDS011;857;52.872;9.692;2023-09-07T22:58:16;4.70;;;4.30;;
1719;SDS011;857;52.872;9.692;2023-09-07T23:00:44;6.80;;;5.60;;
1719;SDS011;857;52.872;9.692;2023-09-07T23:03:13;6.57;;;5.70;;
1719;SDS011;857;52.872;9.692;2023-09-07T23:05:41;5.07;;;4.67;;
1719;SDS011;857;52.872;9.692;2023-09-07T23:10:46;7.07;;;5.90;;
1719;SDS011;857;52.872;9.692;2023-09-07T23:13:14;6.30;;;5.73;;
1719;SDS011;857;52.872;9.692;2023-09-07T23:15:42;5.87;;;5.27;;
1719;SDS011;857;52.872;9.692;2023-09-07T23:18:10;6.37;;;5.77;;
1719;SDS011;857;52.872;9.692;2023-09-07T23:20:37;6.03;;;4.70;;
1719;SDS011;857;52.872;9.692;2023-09-07T23:23:04;6.17;;;5.40;;
1719;SDS011;857;52.872;9.692;2023-09-07T23:25:32;6.00;;;5.43;;
1719;SDS011;857;52.872;9.692;2023-09-07T23:28:02;5.20;;;4.70;;
1719;SDS011;857;52.872;9.692;2023-09-07T23:30:30;5.13;;;4.40;;
1719;SDS011;857;52.872;9.692;2023-09-07T23:32:58;6.30;;;5.63;;
1719;SDS011;857;52.872;9.692;2023-09-07T23:35:26;5.27;;;4.77;;
1719;SDS011;857;52.872;9.692;2023-09-07T23:37:54;4.90;;;4.50;;
1719;SDS011;857;52.872;9.692;2023-09-07T23:40:21;4.53;;;4.10;;
1719;SDS011;857;52.872;9.692;2023-09-07T23:42:49;4.50;;;4.10;;
1719;SDS011;857;52.872;9.692;2023-09-07T23:45:18;5.70;;;5.20;;
1719;SDS011;857;52.872;9.692;2023-09-07T23:47:46;5.60;;;5.10;;
1719;SDS011;857;52.872;9.692;2023-09-07T23:50:14;5.50;;;5.00;;
1719;SDS011;857;52.872;9.692;2023-09-07T23:52:41;6.20;;;5.60;;
1719;SDS011;857;52.872;9.692;2023-09-07T23:55:09;5.00;;;4.57;;
1719;SDS011;857;52.872;9.692;2023-09-07T23:57:38;4.40;;;4.03;;
